Terminal Aerodrome Forecast
Issued by NWS Cleveland, OH

Home | Current Version | Previous Version | Graphics & Text | Print | Product List | Glossary Off
Versions: 1 2 3 4 5 6 7 8 9 10 11 12 13 14

143
FTUS41 KCLE 141720
TAFYNG
TAF
KYNG 141720Z 1418/1518 15004KT P6SM SCT040 BKN200
     FM151200 21007KT P6SM SCT040 BKN120=

USA.gov is the U.S. government's official web portal to all federal, state and local government web resources and services.